West Frankfort, Illinois
Current Conditions -  °F | °C
As of 5:46 PM on Friday 24 Oct 2014 (Local Time) from KMWA Reporting Station
Scattered Clouds Scattered Clouds  
Wind Chill: 66°   Ceiling: Unl
Heat Index: 66°   Visibility: 20mi
Dew Point: 54°   Wind: 6mph
Humidity: 64%   Direction: 220°SW
Pressure: 30.05"   Gusts: NA
Location:  37.9°N, 88.92°W
Report Text: KMWA 242246Z 22005KT 20SM SCT150 19/12 A3005
Loading
Personal Weather Stations






























Interactive Weather Map
Tropical Storm Tracking
New forecast layout! Learn more

10-Day Weather Forecast

Advertisements
Track Severe Weather on mobile